sensor_id;sensor_type;location;lat;lon;timestamp;P1;durP1;ratioP1;P2;durP2;ratioP2
27161;SDS011;54464;50.558;9.704;2024-01-25T00:01:52;16.53;;;3.10;;
27161;SDS011;54464;50.558;9.704;2024-01-25T00:04:19;19.80;;;3.33;;
27161;SDS011;54464;50.558;9.704;2024-01-25T00:06:44;20.63;;;4.70;;
27161;SDS011;54464;50.558;9.704;2024-01-25T00:09:10;20.07;;;4.13;;
27161;SDS011;54464;50.558;9.704;2024-01-25T00:11:35;19.37;;;4.13;;
27161;SDS011;54464;50.558;9.704;2024-01-25T00:14:01;9.70;;;2.40;;
27161;SDS011;54464;50.558;9.704;2024-01-25T00:16:27;7.00;;;2.43;;
27161;SDS011;54464;50.558;9.704;2024-01-25T00:18:53;20.37;;;3.97;;
27161;SDS011;54464;50.558;9.704;2024-01-25T00:21:18;7.47;;;2.47;;
27161;SDS011;54464;50.558;9.704;2024-01-25T00:23:44;21.40;;;3.97;;
27161;SDS011;54464;50.558;9.704;2024-01-25T00:26:09;11.57;;;2.33;;
27161;SDS011;54464;50.558;9.704;2024-01-25T00:28:35;14.77;;;3.70;;
27161;SDS011;54464;50.558;9.704;2024-01-25T00:31:00;16.00;;;2.37;;
27161;SDS011;54464;50.558;9.704;2024-01-25T00:33:26;17.10;;;3.40;;
27161;SDS011;54464;50.558;9.704;2024-01-25T00:35:52;12.77;;;2.87;;
27161;SDS011;54464;50.558;9.704;2024-01-25T00:38:18;13.80;;;3.20;;
27161;SDS011;54464;50.558;9.704;2024-01-25T00:40:44;16.60;;;3.47;;
27161;SDS011;54464;50.558;9.704;2024-01-25T00:43:10;13.00;;;3.13;;
27161;SDS011;54464;50.558;9.704;2024-01-25T00:45:36;17.33;;;3.80;;
27161;SDS011;54464;50.558;9.704;2024-01-25T00:48:02;14.00;;;3.90;;
27161;SDS011;54464;50.558;9.704;2024-01-25T00:50:27;12.40;;;2.90;;
27161;SDS011;54464;50.558;9.704;2024-01-25T00:52:53;14.50;;;3.07;;
27161;SDS011;54464;50.558;9.704;2024-01-25T00:55:19;16.83;;;3.37;;
27161;SDS011;54464;50.558;9.704;2024-01-25T00:57:45;19.13;;;3.83;;
27161;SDS011;54464;50.558;9.704;2024-01-25T01:00:11;8.70;;;2.60;;
27161;SDS011;54464;50.558;9.704;2024-01-25T01:02:43;16.40;;;3.07;;
27161;SDS011;54464;50.558;9.704;2024-01-25T01:05:10;14.83;;;3.57;;
27161;SDS011;54464;50.558;9.704;2024-01-25T01:07:37;14.80;;;3.13;;
27161;SDS011;54464;50.558;9.704;2024-01-25T01:10:05;13.70;;;3.70;;
27161;SDS011;54464;50.558;9.704;2024-01-25T01:12:32;17.33;;;3.77;;
27161;SDS011;54464;50.558;9.704;2024-01-25T01:14:58;17.23;;;3.63;;
27161;SDS011;54464;50.558;9.704;2024-01-25T01:17:23;25.20;;;4.70;;
27161;SDS011;54464;50.558;9.704;2024-01-25T01:19:49;15.33;;;3.70;;
27161;SDS011;54464;50.558;9.704;2024-01-25T01:22:15;18.43;;;3.50;;
27161;SDS011;54464;50.558;9.704;2024-01-25T01:24:40;20.33;;;4.33;;
27161;SDS011;54464;50.558;9.704;2024-01-25T01:27:06;17.47;;;3.37;;
27161;SDS011;54464;50.558;9.704;2024-01-25T01:29:31;18.93;;;3.47;;
27161;SDS011;54464;50.558;9.704;2024-01-25T01:31:57;19.57;;;4.00;;
27161;SDS011;54464;50.558;9.704;2024-01-25T01:34:23;19.27;;;3.47;;
27161;SDS011;54464;50.558;9.704;2024-01-25T05:52:30;14.60;;;4.60;;
27161;SDS011;54464;50.558;9.704;2024-01-25T06:55:13;14.90;;;5.47;;
27161;SDS011;54464;50.558;9.704;2024-01-25T06:57:44;21.80;;;5.30;;
27161;SDS011;54464;50.558;9.704;2024-01-25T07:00:18;12.80;;;5.47;;
27161;SDS011;54464;50.558;9.704;2024-01-25T07:02:56;23.03;;;6.40;;
27161;SDS011;54464;50.558;9.704;2024-01-25T07:05:23;22.53;;;5.93;;
27161;SDS011;54464;50.558;9.704;2024-01-25T07:07:54;19.77;;;5.87;;
27161;SDS011;54464;50.558;9.704;2024-01-25T07:10:46;21.13;;;5.37;;
27161;SDS011;54464;50.558;9.704;2024-01-25T07:13:19;21.57;;;4.83;;
27161;SDS011;54464;50.558;9.704;2024-01-25T07:15:51;18.13;;;4.77;;
27161;SDS011;54464;50.558;9.704;2024-01-25T07:18:56;16.30;;;4.80;;
27161;SDS011;54464;50.558;9.704;2024-01-25T07:21:23;17.03;;;4.67;;
27161;SDS011;54464;50.558;9.704;2024-01-25T07:24:32;20.97;;;5.13;;
27161;SDS011;54464;50.558;9.704;2024-01-25T07:27:02;18.07;;;4.63;;
27161;SDS011;54464;50.558;9.704;2024-01-25T07:29:28;16.27;;;4.77;;
27161;SDS011;54464;50.558;9.704;2024-01-25T07:31:56;17.80;;;5.17;;
27161;SDS011;54464;50.558;9.704;2024-01-25T07:34:23;16.67;;;4.60;;
27161;SDS011;54464;50.558;9.704;2024-01-25T07:36:53;17.60;;;4.90;;
27161;SDS011;54464;50.558;9.704;2024-01-25T07:39:42;21.37;;;4.87;;
27161;SDS011;54464;50.558;9.704;2024-01-25T07:42:29;15.60;;;4.63;;
27161;SDS011;54464;50.558;9.704;2024-01-25T07:45:02;19.50;;;5.47;;
27161;SDS011;54464;50.558;9.704;2024-01-25T07:47:27;16.73;;;5.07;;
27161;SDS011;54464;50.558;9.704;2024-01-25T07:49:55;21.27;;;4.97;;
27161;SDS011;54464;50.558;9.704;2024-01-25T07:52:21;21.47;;;5.63;;
27161;SDS011;54464;50.558;9.704;2024-01-25T07:54:47;15.80;;;6.80;;
27161;SDS011;54464;50.558;9.704;2024-01-25T07:57:14;20.23;;;5.07;;
27161;SDS011;54464;50.558;9.704;2024-01-25T07:59:42;18.33;;;5.43;;
27161;SDS011;54464;50.558;9.704;2024-01-25T08:02:11;16.13;;;4.90;;
27161;SDS011;54464;50.558;9.704;2024-01-25T08:04:50;14.33;;;4.70;;
27161;SDS011;54464;50.558;9.704;2024-01-25T08:07:38;14.50;;;5.17;;
27161;SDS011;54464;50.558;9.704;2024-01-25T08:10:08;19.87;;;5.47;;
27161;SDS011;54464;50.558;9.704;2024-01-25T08:12:36;13.23;;;4.77;;
27161;SDS011;54464;50.558;9.704;2024-01-25T08:15:04;19.37;;;5.80;;
27161;SDS011;54464;50.558;9.704;2024-01-25T08:17:31;17.03;;;5.23;;
27161;SDS011;54464;50.558;9.704;2024-01-25T08:20:01;13.20;;;4.77;;
27161;SDS011;54464;50.558;9.704;2024-01-25T08:22:31;16.00;;;5.07;;
27161;SDS011;54464;50.558;9.704;2024-01-25T08:24:58;17.40;;;5.57;;
27161;SDS011;54464;50.558;9.704;2024-01-25T08:27:26;14.80;;;5.60;;
27161;SDS011;54464;50.558;9.704;2024-01-25T08:30:16;17.07;;;4.73;;
27161;SDS011;54464;50.558;9.704;2024-01-25T08:32:45;17.70;;;4.97;;
27161;SDS011;54464;50.558;9.704;2024-01-25T08:35:13;15.37;;;4.03;;
27161;SDS011;54464;50.558;9.704;2024-01-25T08:37:40;15.47;;;4.57;;
27161;SDS011;54464;50.558;9.704;2024-01-25T08:40:11;18.03;;;4.40;;
27161;SDS011;54464;50.558;9.704;2024-01-25T08:42:38;13.30;;;4.43;;
27161;SDS011;54464;50.558;9.704;2024-01-25T08:45:11;15.43;;;4.67;;
27161;SDS011;54464;50.558;9.704;2024-01-25T08:47:49;14.70;;;4.87;;
27161;SDS011;54464;50.558;9.704;2024-01-25T08:52:58;12.80;;;4.13;;
27161;SDS011;54464;50.558;9.704;2024-01-25T08:56:14;18.37;;;4.17;;
27161;SDS011;54464;50.558;9.704;2024-01-25T08:58:51;12.47;;;4.17;;
27161;SDS011;54464;50.558;9.704;2024-01-25T09:01:32;17.00;;;4.77;;
27161;SDS011;54464;50.558;9.704;2024-01-25T09:08:18;14.53;;;4.43;;
27161;SDS011;54464;50.558;9.704;2024-01-25T09:14:06;18.13;;;4.90;;
27161;SDS011;54464;50.558;9.704;2024-01-25T09:17:14;17.90;;;4.77;;
27161;SDS011;54464;50.558;9.704;2024-01-25T09:20:15;17.80;;;3.90;;
27161;SDS011;54464;50.558;9.704;2024-01-25T09:23:09;18.30;;;5.67;;
27161;SDS011;54464;50.558;9.704;2024-01-25T09:25:35;15.73;;;4.40;;
27161;SDS011;54464;50.558;9.704;2024-01-25T09:28:32;16.50;;;4.30;;
27161;SDS011;54464;50.558;9.704;2024-01-25T09:33:47;16.07;;;3.80;;
27161;SDS011;54464;50.558;9.704;2024-01-25T09:55:25;12.77;;;3.73;;
27161;SDS011;54464;50.558;9.704;2024-01-25T09:58:57;14.87;;;3.60;;
27161;SDS011;54464;50.558;9.704;2024-01-25T10:07:08;14.60;;;4.13;;
27161;SDS011;54464;50.558;9.704;2024-01-25T10:10:18;16.00;;;4.00;;
27161;SDS011;54464;50.558;9.704;2024-01-25T10:13:28;14.80;;;2.83;;
27161;SDS011;54464;50.558;9.704;2024-01-25T10:16:57;16.93;;;3.53;;
27161;SDS011;54464;50.558;9.704;2024-01-25T10:33:03;8.00;;;2.30;;
27161;SDS011;54464;50.558;9.704;2024-01-25T10:48:28;15.30;;;3.77;;
27161;SDS011;54464;50.558;9.704;2024-01-25T10:51:42;10.97;;;2.90;;
27161;SDS011;54464;50.558;9.704;2024-01-25T10:54:52;14.77;;;3.23;;
27161;SDS011;54464;50.558;9.704;2024-01-25T11:29:43;13.80;;;2.77;;
27161;SDS011;54464;50.558;9.704;2024-01-25T11:33:15;11.67;;;3.03;;
27161;SDS011;54464;50.558;9.704;2024-01-25T11:57:08;13.70;;;3.23;;
27161;SDS011;54464;50.558;9.704;2024-01-25T12:18:01;15.17;;;2.93;;
27161;SDS011;54464;50.558;9.704;2024-01-25T12:24:19;13.00;;;3.57;;
27161;SDS011;54464;50.558;9.704;2024-01-25T12:38:03;12.73;;;3.40;;
27161;SDS011;54464;50.558;9.704;2024-01-25T12:42:59;15.67;;;3.47;;
27161;SDS011;54464;50.558;9.704;2024-01-25T12:46:45;12.70;;;3.00;;
27161;SDS011;54464;50.558;9.704;2024-01-25T13:03:12;13.67;;;3.20;;
27161;SDS011;54464;50.558;9.704;2024-01-25T13:06:36;14.27;;;3.73;;
27161;SDS011;54464;50.558;9.704;2024-01-25T13:14:59;16.07;;;4.83;;
27161;SDS011;54464;50.558;9.704;2024-01-25T13:17:49;17.47;;;6.73;;
27161;SDS011;54464;50.558;9.704;2024-01-25T13:20:42;18.93;;;6.20;;
27161;SDS011;54464;50.558;9.704;2024-01-25T13:23:14;11.63;;;3.33;;
27161;SDS011;54464;50.558;9.704;2024-01-25T13:25:48;12.40;;;3.60;;
27161;SDS011;54464;50.558;9.704;2024-01-25T13:28:15;11.83;;;4.00;;
27161;SDS011;54464;50.558;9.704;2024-01-25T13:30:43;12.50;;;4.40;;
27161;SDS011;54464;50.558;9.704;2024-01-25T13:33:09;16.27;;;4.10;;
27161;SDS011;54464;50.558;9.704;2024-01-25T13:35:35;14.30;;;3.87;;
27161;SDS011;54464;50.558;9.704;2024-01-25T14:36:28;13.37;;;4.80;;
27161;SDS011;54464;50.558;9.704;2024-01-25T14:38:53;14.97;;;5.50;;
27161;SDS011;54464;50.558;9.704;2024-01-25T14:41:19;14.70;;;5.07;;
27161;SDS011;54464;50.558;9.704;2024-01-25T14:43:44;14.93;;;4.50;;
27161;SDS011;54464;50.558;9.704;2024-01-25T14:46:10;14.40;;;4.53;;
27161;SDS011;54464;50.558;9.704;2024-01-25T14:48:36;17.60;;;5.17;;
27161;SDS011;54464;50.558;9.704;2024-01-25T14:51:02;18.70;;;5.70;;
27161;SDS011;54464;50.558;9.704;2024-01-25T14:53:48;16.00;;;4.63;;
27161;SDS011;54464;50.558;9.704;2024-01-25T14:56:13;17.07;;;5.50;;
27161;SDS011;54464;50.558;9.704;2024-01-25T14:58:39;17.10;;;4.67;;
27161;SDS011;54464;50.558;9.704;2024-01-25T15:01:04;15.03;;;4.50;;
27161;SDS011;54464;50.558;9.704;2024-01-25T15:03:30;14.33;;;4.67;;
27161;SDS011;54464;50.558;9.704;2024-01-25T15:05:57;14.67;;;4.20;;
27161;SDS011;54464;50.558;9.704;2024-01-25T15:08:23;15.50;;;4.97;;
27161;SDS011;54464;50.558;9.704;2024-01-25T15:10:48;15.00;;;4.20;;
27161;SDS011;54464;50.558;9.704;2024-01-25T15:13:14;22.27;;;4.73;;
27161;SDS011;54464;50.558;9.704;2024-01-25T15:15:40;15.77;;;4.67;;
27161;SDS011;54464;50.558;9.704;2024-01-25T15:18:08;18.53;;;4.60;;
27161;SDS011;54464;50.558;9.704;2024-01-25T15:20:34;19.07;;;4.73;;
27161;SDS011;54464;50.558;9.704;2024-01-25T15:23:02;18.20;;;5.07;;
27161;SDS011;54464;50.558;9.704;2024-01-25T15:25:27;15.53;;;5.10;;
27161;SDS011;54464;50.558;9.704;2024-01-25T15:27:53;16.83;;;5.10;;
27161;SDS011;54464;50.558;9.704;2024-01-25T15:30:21;14.80;;;4.47;;
27161;SDS011;54464;50.558;9.704;2024-01-25T15:32:47;14.47;;;4.67;;
27161;SDS011;54464;50.558;9.704;2024-01-25T15:35:12;14.57;;;4.80;;
27161;SDS011;54464;50.558;9.704;2024-01-25T15:37:38;17.50;;;4.97;;
27161;SDS011;54464;50.558;9.704;2024-01-25T15:40:06;19.37;;;6.17;;
27161;SDS011;54464;50.558;9.704;2024-01-25T15:42:36;18.47;;;4.70;;
27161;SDS011;54464;50.558;9.704;2024-01-25T15:45:05;18.47;;;5.00;;
27161;SDS011;54464;50.558;9.704;2024-01-25T15:47:37;19.23;;;6.40;;
27161;SDS011;54464;50.558;9.704;2024-01-25T15:50:03;19.53;;;6.13;;
27161;SDS011;54464;50.558;9.704;2024-01-25T15:52:35;19.33;;;6.23;;
27161;SDS011;54464;50.558;9.704;2024-01-25T15:55:00;21.13;;;5.23;;
27161;SDS011;54464;50.558;9.704;2024-01-25T15:57:29;22.20;;;7.20;;
27161;SDS011;54464;50.558;9.704;2024-01-25T15:59:54;18.07;;;6.37;;
27161;SDS011;54464;50.558;9.704;2024-01-25T16:02:20;18.47;;;6.30;;
27161;SDS011;54464;50.558;9.704;2024-01-25T16:04:54;19.93;;;6.27;;
27161;SDS011;54464;50.558;9.704;2024-01-25T16:07:22;16.27;;;6.00;;
27161;SDS011;54464;50.558;9.704;2024-01-25T16:09:50;20.30;;;5.87;;
27161;SDS011;54464;50.558;9.704;2024-01-25T16:12:15;15.50;;;6.00;;
27161;SDS011;54464;50.558;9.704;2024-01-25T16:14:46;19.93;;;5.33;;
27161;SDS011;54464;50.558;9.704;2024-01-25T16:17:12;17.07;;;5.80;;
27161;SDS011;54464;50.558;9.704;2024-01-25T16:19:40;16.40;;;5.43;;
27161;SDS011;54464;50.558;9.704;2024-01-25T16:22:06;17.80;;;6.07;;
27161;SDS011;54464;50.558;9.704;2024-01-25T16:24:32;20.73;;;6.53;;
27161;SDS011;54464;50.558;9.704;2024-01-25T16:26:59;17.33;;;5.80;;
27161;SDS011;54464;50.558;9.704;2024-01-25T16:29:27;13.60;;;5.23;;
27161;SDS011;54464;50.558;9.704;2024-01-25T16:49:49;24.83;;;7.20;;
27161;SDS011;54464;50.558;9.704;2024-01-25T16:52:14;20.87;;;6.53;;
27161;SDS011;54464;50.558;9.704;2024-01-25T16:54:40;33.83;;;17.07;;
27161;SDS011;54464;50.558;9.704;2024-01-25T16:57:06;25.80;;;10.40;;
27161;SDS011;54464;50.558;9.704;2024-01-25T16:59:31;19.73;;;8.33;;
27161;SDS011;54464;50.558;9.704;2024-01-25T17:01:58;15.90;;;5.80;;
27161;SDS011;54464;50.558;9.704;2024-01-25T17:04:24;18.57;;;6.40;;
27161;SDS011;54464;50.558;9.704;2024-01-25T17:06:50;22.10;;;6.50;;
27161;SDS011;54464;50.558;9.704;2024-01-25T17:09:15;24.57;;;8.80;;
27161;SDS011;54464;50.558;9.704;2024-01-25T17:11:49;19.53;;;7.63;;
27161;SDS011;54464;50.558;9.704;2024-01-25T17:14:15;17.20;;;7.03;;
27161;SDS011;54464;50.558;9.704;2024-01-25T17:16:41;22.03;;;8.57;;
27161;SDS011;54464;50.558;9.704;2024-01-25T17:19:06;17.00;;;8.17;;
27161;SDS011;54464;50.558;9.704;2024-01-25T17:21:32;20.00;;;7.43;;
27161;SDS011;54464;50.558;9.704;2024-01-25T17:23:58;24.47;;;7.43;;
27161;SDS011;54464;50.558;9.704;2024-01-25T17:26:24;21.77;;;7.73;;
27161;SDS011;54464;50.558;9.704;2024-01-25T17:28:50;19.53;;;7.97;;
27161;SDS011;54464;50.558;9.704;2024-01-25T17:31:16;21.07;;;7.00;;
27161;SDS011;54464;50.558;9.704;2024-01-25T17:33:45;20.77;;;7.00;;
27161;SDS011;54464;50.558;9.704;2024-01-25T17:36:11;24.70;;;7.00;;
27161;SDS011;54464;50.558;9.704;2024-01-25T17:38:37;19.87;;;6.83;;
27161;SDS011;54464;50.558;9.704;2024-01-25T17:41:05;24.33;;;6.70;;
27161;SDS011;54464;50.558;9.704;2024-01-25T17:43:37;21.50;;;7.00;;
27161;SDS011;54464;50.558;9.704;2024-01-25T17:46:02;18.93;;;7.40;;
27161;SDS011;54464;50.558;9.704;2024-01-25T17:48:28;21.17;;;7.40;;
27161;SDS011;54464;50.558;9.704;2024-01-25T17:50:54;24.17;;;7.13;;
27161;SDS011;54464;50.558;9.704;2024-01-25T17:53:19;21.83;;;7.10;;
27161;SDS011;54464;50.558;9.704;2024-01-25T17:55:45;24.90;;;8.77;;
27161;SDS011;54464;50.558;9.704;2024-01-25T17:58:11;23.57;;;8.27;;
27161;SDS011;54464;50.558;9.704;2024-01-25T18:00:36;17.80;;;7.67;;
27161;SDS011;54464;50.558;9.704;2024-01-25T18:03:02;21.50;;;8.43;;
27161;SDS011;54464;50.558;9.704;2024-01-25T18:05:28;25.13;;;8.07;;
27161;SDS011;54464;50.558;9.704;2024-01-25T18:07:54;25.63;;;7.47;;
27161;SDS011;54464;50.558;9.704;2024-01-25T18:10:19;20.13;;;7.70;;
27161;SDS011;54464;50.558;9.704;2024-01-25T18:12:45;21.57;;;8.40;;
27161;SDS011;54464;50.558;9.704;2024-01-25T18:15:11;19.73;;;8.47;;
27161;SDS011;54464;50.558;9.704;2024-01-25T18:17:40;23.50;;;8.03;;
27161;SDS011;54464;50.558;9.704;2024-01-25T18:20:06;24.43;;;7.73;;
27161;SDS011;54464;50.558;9.704;2024-01-25T18:22:32;18.40;;;6.43;;
27161;SDS011;54464;50.558;9.704;2024-01-25T18:24:58;26.60;;;10.63;;
27161;SDS011;54464;50.558;9.704;2024-01-25T18:27:23;27.57;;;10.10;;
27161;SDS011;54464;50.558;9.704;2024-01-25T18:29:49;25.00;;;9.27;;
27161;SDS011;54464;50.558;9.704;2024-01-25T18:32:14;23.70;;;8.53;;
27161;SDS011;54464;50.558;9.704;2024-01-25T18:34:40;24.60;;;8.70;;
27161;SDS011;54464;50.558;9.704;2024-01-25T18:37:05;28.53;;;13.00;;
27161;SDS011;54464;50.558;9.704;2024-01-25T18:39:31;33.90;;;17.87;;
27161;SDS011;54464;50.558;9.704;2024-01-25T18:41:57;39.73;;;18.83;;
27161;SDS011;54464;50.558;9.704;2024-01-25T18:44:25;73.43;;;35.80;;
27161;SDS011;54464;50.558;9.704;2024-01-25T18:46:51;64.80;;;29.27;;
27161;SDS011;54464;50.558;9.704;2024-01-25T18:49:17;42.37;;;19.40;;
27161;SDS011;54464;50.558;9.704;2024-01-25T18:51:43;27.70;;;12.27;;
27161;SDS011;54464;50.558;9.704;2024-01-25T18:54:09;25.17;;;10.00;;
27161;SDS011;54464;50.558;9.704;2024-01-25T18:56:37;27.37;;;10.03;;
27161;SDS011;54464;50.558;9.704;2024-01-25T18:59:04;16.27;;;7.30;;
27161;SDS011;54464;50.558;9.704;2024-01-25T19:01:30;22.07;;;8.10;;
27161;SDS011;54464;50.558;9.704;2024-01-25T19:03:56;20.47;;;7.20;;
27161;SDS011;54464;50.558;9.704;2024-01-25T19:06:23;22.57;;;7.03;;
27161;SDS011;54464;50.558;9.704;2024-01-25T19:08:53;20.70;;;7.47;;
27161;SDS011;54464;50.558;9.704;2024-01-25T19:11:18;19.37;;;7.10;;
27161;SDS011;54464;50.558;9.704;2024-01-25T19:13:44;28.03;;;7.83;;
27161;SDS011;54464;50.558;9.704;2024-01-25T19:16:10;19.63;;;6.93;;
27161;SDS011;54464;50.558;9.704;2024-01-25T19:18:35;21.27;;;6.97;;
27161;SDS011;54464;50.558;9.704;2024-01-25T19:21:01;15.77;;;6.87;;
27161;SDS011;54464;50.558;9.704;2024-01-25T19:23:27;23.60;;;7.83;;
27161;SDS011;54464;50.558;9.704;2024-01-25T19:25:53;23.50;;;7.70;;
27161;SDS011;54464;50.558;9.704;2024-01-25T19:28:18;17.27;;;6.90;;
27161;SDS011;54464;50.558;9.704;2024-01-25T19:30:44;19.30;;;7.03;;
27161;SDS011;54464;50.558;9.704;2024-01-25T19:33:10;21.13;;;7.20;;
27161;SDS011;54464;50.558;9.704;2024-01-25T19:35:35;24.70;;;7.00;;
27161;SDS011;54464;50.558;9.704;2024-01-25T19:38:01;24.53;;;6.20;;
27161;SDS011;54464;50.558;9.704;2024-01-25T19:40:27;18.87;;;5.53;;
27161;SDS011;54464;50.558;9.704;2024-01-25T19:42:52;15.93;;;4.90;;
27161;SDS011;54464;50.558;9.704;2024-01-25T19:45:18;16.87;;;5.73;;
27161;SDS011;54464;50.558;9.704;2024-01-25T19:47:43;18.20;;;5.30;;
27161;SDS011;54464;50.558;9.704;2024-01-25T19:50:09;17.23;;;5.20;;
27161;SDS011;54464;50.558;9.704;2024-01-25T19:52:35;17.07;;;5.43;;
27161;SDS011;54464;50.558;9.704;2024-01-25T19:55:00;17.37;;;4.67;;
27161;SDS011;54464;50.558;9.704;2024-01-25T19:57:26;18.23;;;5.27;;
27161;SDS011;54464;50.558;9.704;2024-01-25T19:59:56;19.57;;;5.43;;
27161;SDS011;54464;50.558;9.704;2024-01-25T20:02:21;22.40;;;5.60;;
27161;SDS011;54464;50.558;9.704;2024-01-25T20:04:47;20.93;;;6.03;;
27161;SDS011;54464;50.558;9.704;2024-01-25T20:07:13;19.33;;;6.57;;
27161;SDS011;54464;50.558;9.704;2024-01-25T20:09:39;17.93;;;5.73;;
27161;SDS011;54464;50.558;9.704;2024-01-25T20:12:04;20.40;;;7.70;;
27161;SDS011;54464;50.558;9.704;2024-01-25T20:14:30;17.37;;;6.90;;
27161;SDS011;54464;50.558;9.704;2024-01-25T20:16:56;18.67;;;6.13;;
27161;SDS011;54464;50.558;9.704;2024-01-25T20:19:21;21.20;;;5.97;;
27161;SDS011;54464;50.558;9.704;2024-01-25T20:21:47;19.87;;;7.07;;
27161;SDS011;54464;50.558;9.704;2024-01-25T20:24:13;18.73;;;8.10;;
27161;SDS011;54464;50.558;9.704;2024-01-25T20:26:39;22.90;;;7.20;;
27161;SDS011;54464;50.558;9.704;2024-01-25T20:29:05;20.13;;;6.80;;
27161;SDS011;54464;50.558;9.704;2024-01-25T20:31:31;17.10;;;6.30;;
27161;SDS011;54464;50.558;9.704;2024-01-25T20:33:56;16.23;;;6.27;;
27161;SDS011;54464;50.558;9.704;2024-01-25T20:36:22;17.73;;;6.53;;
27161;SDS011;54464;50.558;9.704;2024-01-25T20:38:48;17.53;;;6.53;;
27161;SDS011;54464;50.558;9.704;2024-01-25T20:41:13;18.77;;;6.67;;
27161;SDS011;54464;50.558;9.704;2024-01-25T20:43:39;18.17;;;6.73;;
27161;SDS011;54464;50.558;9.704;2024-01-25T20:46:04;15.27;;;6.40;;
27161;SDS011;54464;50.558;9.704;2024-01-25T20:48:30;16.73;;;7.10;;
27161;SDS011;54464;50.558;9.704;2024-01-25T20:50:56;17.30;;;5.87;;
27161;SDS011;54464;50.558;9.704;2024-01-25T20:53:21;19.70;;;5.57;;
27161;SDS011;54464;50.558;9.704;2024-01-25T20:55:48;15.83;;;5.43;;
27161;SDS011;54464;50.558;9.704;2024-01-25T20:58:13;16.30;;;5.47;;
27161;SDS011;54464;50.558;9.704;2024-01-25T21:00:39;17.87;;;4.57;;
27161;SDS011;54464;50.558;9.704;2024-01-25T21:03:05;18.37;;;6.07;;
27161;SDS011;54464;50.558;9.704;2024-01-25T21:05:31;20.27;;;5.50;;
27161;SDS011;54464;50.558;9.704;2024-01-25T21:07:57;19.50;;;5.70;;
27161;SDS011;54464;50.558;9.704;2024-01-25T21:10:23;18.70;;;6.00;;
27161;SDS011;54464;50.558;9.704;2024-01-25T21:12:49;24.87;;;7.93;;
27161;SDS011;54464;50.558;9.704;2024-01-25T21:15:15;21.47;;;7.50;;
27161;SDS011;54464;50.558;9.704;2024-01-25T21:17:40;20.97;;;8.30;;
27161;SDS011;54464;50.558;9.704;2024-01-25T21:20:06;21.57;;;8.63;;
27161;SDS011;54464;50.558;9.704;2024-01-25T21:22:33;22.83;;;7.67;;
27161;SDS011;54464;50.558;9.704;2024-01-25T21:24:59;20.20;;;6.47;;
27161;SDS011;54464;50.558;9.704;2024-01-25T21:27:25;40.80;;;14.70;;
27161;SDS011;54464;50.558;9.704;2024-01-25T21:29:51;38.33;;;13.23;;
27161;SDS011;54464;50.558;9.704;2024-01-25T21:32:17;32.00;;;9.23;;
27161;SDS011;54464;50.558;9.704;2024-01-25T21:34:42;21.63;;;7.73;;
27161;SDS011;54464;50.558;9.704;2024-01-25T21:37:08;18.67;;;5.60;;
27161;SDS011;54464;50.558;9.704;2024-01-25T21:39:33;14.40;;;4.90;;
27161;SDS011;54464;50.558;9.704;2024-01-25T21:41:59;18.53;;;5.17;;
27161;SDS011;54464;50.558;9.704;2024-01-25T21:44:24;17.93;;;4.97;;
27161;SDS011;54464;50.558;9.704;2024-01-25T21:46:50;18.57;;;5.87;;
27161;SDS011;54464;50.558;9.704;2024-01-25T21:49:16;20.60;;;5.60;;
27161;SDS011;54464;50.558;9.704;2024-01-25T21:51:44;14.03;;;5.07;;
27161;SDS011;54464;50.558;9.704;2024-01-25T21:54:11;19.00;;;5.47;;
27161;SDS011;54464;50.558;9.704;2024-01-25T21:56:37;17.20;;;4.67;;
27161;SDS011;54464;50.558;9.704;2024-01-25T21:59:02;16.97;;;5.13;;
27161;SDS011;54464;50.558;9.704;2024-01-25T22:01:28;17.57;;;5.17;;
27161;SDS011;54464;50.558;9.704;2024-01-25T22:03:54;20.47;;;5.37;;
27161;SDS011;54464;50.558;9.704;2024-01-25T22:06:20;20.17;;;5.17;;
27161;SDS011;54464;50.558;9.704;2024-01-25T22:08:45;19.83;;;5.30;;
27161;SDS011;54464;50.558;9.704;2024-01-25T22:11:11;20.67;;;5.47;;
27161;SDS011;54464;50.558;9.704;2024-01-25T22:13:40;17.83;;;5.27;;
27161;SDS011;54464;50.558;9.704;2024-01-25T22:16:06;20.03;;;5.93;;
27161;SDS011;54464;50.558;9.704;2024-01-25T22:18:33;23.53;;;5.60;;
27161;SDS011;54464;50.558;9.704;2024-01-25T22:20:58;20.10;;;5.63;;
27161;SDS011;54464;50.558;9.704;2024-01-25T22:23:24;20.53;;;5.87;;
27161;SDS011;54464;50.558;9.704;2024-01-25T22:25:52;17.90;;;5.13;;
27161;SDS011;54464;50.558;9.704;2024-01-25T22:28:18;18.13;;;6.37;;
27161;SDS011;54464;50.558;9.704;2024-01-25T22:30:44;22.57;;;6.60;;
27161;SDS011;54464;50.558;9.704;2024-01-25T22:33:10;22.83;;;6.20;;
27161;SDS011;54464;50.558;9.704;2024-01-25T22:35:37;20.83;;;6.60;;
27161;SDS011;54464;50.558;9.704;2024-01-25T22:43:12;17.30;;;6.23;;
27161;SDS011;54464;50.558;9.704;2024-01-25T22:45:49;25.50;;;6.53;;
27161;SDS011;54464;50.558;9.704;2024-01-25T22:50:46;28.47;;;7.17;;
27161;SDS011;54464;50.558;9.704;2024-01-25T22:53:12;22.23;;;6.53;;
27161;SDS011;54464;50.558;9.704;2024-01-25T22:55:39;23.93;;;7.37;;
27161;SDS011;54464;50.558;9.704;2024-01-25T23:03:04;23.13;;;6.83;;
27161;SDS011;54464;50.558;9.704;2024-01-25T23:05:30;20.83;;;6.93;;
27161;SDS011;54464;50.558;9.704;2024-01-25T23:08:02;24.97;;;7.20;;
27161;SDS011;54464;50.558;9.704;2024-01-25T23:10:33;23.17;;;6.90;;
27161;SDS011;54464;50.558;9.704;2024-01-25T23:13:00;23.73;;;6.93;;
27161;SDS011;54464;50.558;9.704;2024-01-25T23:57:49;25.80;;;9.33;;
